sensor_id;sensor_type;location;lat;lon;timestamp;P1;durP1;ratioP1;P2;durP2;ratioP2
18336;SDS011;9294;51.106;7.028;2023-03-08T00:00:08;2.35;;;2.25;;
18336;SDS011;9294;51.106;7.028;2023-03-08T00:02:38;2.20;;;2.10;;
18336;SDS011;9294;51.106;7.028;2023-03-08T00:05:05;1.98;;;1.88;;
18336;SDS011;9294;51.106;7.028;2023-03-08T00:07:32;1.80;;;1.75;;
18336;SDS011;9294;51.106;7.028;2023-03-08T00:09:59;1.95;;;1.85;;
18336;SDS011;9294;51.106;7.028;2023-03-08T00:12:28;2.13;;;2.08;;
18336;SDS011;9294;51.106;7.028;2023-03-08T00:14:54;2.47;;;2.28;;
18336;SDS011;9294;51.106;7.028;2023-03-08T00:17:21;2.00;;;1.98;;
18336;SDS011;9294;51.106;7.028;2023-03-08T00:19:49;2.00;;;1.90;;
18336;SDS011;9294;51.106;7.028;2023-03-08T00:22:16;2.15;;;2.05;;
18336;SDS011;9294;51.106;7.028;2023-03-08T00:24:43;1.75;;;1.50;;
18336;SDS011;9294;51.106;7.028;2023-03-08T00:27:10;1.90;;;1.80;;
18336;SDS011;9294;51.106;7.028;2023-03-08T00:29:38;1.85;;;1.75;;
18336;SDS011;9294;51.106;7.028;2023-03-08T00:32:05;2.30;;;2.13;;
18336;SDS011;9294;51.106;7.028;2023-03-08T00:34:32;1.75;;;1.75;;
18336;SDS011;9294;51.106;7.028;2023-03-08T00:36:58;1.70;;;1.70;;
18336;SDS011;9294;51.106;7.028;2023-03-08T00:39:25;2.00;;;1.90;;
18336;SDS011;9294;51.106;7.028;2023-03-08T00:41:52;1.67;;;1.60;;
18336;SDS011;9294;51.106;7.028;2023-03-08T00:44:18;2.05;;;1.95;;
18336;SDS011;9294;51.106;7.028;2023-03-08T00:46:46;1.77;;;1.70;;
18336;SDS011;9294;51.106;7.028;2023-03-08T00:49:13;1.75;;;1.67;;
18336;SDS011;9294;51.106;7.028;2023-03-08T00:51:40;1.83;;;1.73;;
18336;SDS011;9294;51.106;7.028;2023-03-08T00:54:06;2.05;;;1.95;;
18336;SDS011;9294;51.106;7.028;2023-03-08T00:56:33;1.75;;;1.70;;
18336;SDS011;9294;51.106;7.028;2023-03-08T00:59:00;1.80;;;1.70;;
18336;SDS011;9294;51.106;7.028;2023-03-08T01:01:26;1.60;;;1.60;;
18336;SDS011;9294;51.106;7.028;2023-03-08T01:03:54;2.10;;;1.88;;
18336;SDS011;9294;51.106;7.028;2023-03-08T01:06:21;1.45;;;1.40;;
18336;SDS011;9294;51.106;7.028;2023-03-08T01:08:48;1.88;;;1.88;;
18336;SDS011;9294;51.106;7.028;2023-03-08T01:11:15;1.88;;;1.83;;
18336;SDS011;9294;51.106;7.028;2023-03-08T01:13:43;1.70;;;1.60;;
18336;SDS011;9294;51.106;7.028;2023-03-08T01:16:13;1.88;;;1.88;;
18336;SDS011;9294;51.106;7.028;2023-03-08T01:18:41;1.73;;;1.70;;
18336;SDS011;9294;51.106;7.028;2023-03-08T01:21:09;1.90;;;1.83;;
18336;SDS011;9294;51.106;7.028;2023-03-08T01:23:36;1.67;;;1.67;;
18336;SDS011;9294;51.106;7.028;2023-03-08T01:26:04;2.00;;;1.90;;
18336;SDS011;9294;51.106;7.028;2023-03-08T01:28:33;1.58;;;1.58;;
18336;SDS011;9294;51.106;7.028;2023-03-08T01:31:00;1.80;;;1.70;;
18336;SDS011;9294;51.106;7.028;2023-03-08T01:33:27;1.83;;;1.73;;
18336;SDS011;9294;51.106;7.028;2023-03-08T01:35:54;1.90;;;1.80;;
18336;SDS011;9294;51.106;7.028;2023-03-08T01:38:23;1.85;;;1.75;;
18336;SDS011;9294;51.106;7.028;2023-03-08T01:40:53;1.90;;;1.90;;
18336;SDS011;9294;51.106;7.028;2023-03-08T01:43:22;1.67;;;1.63;;
18336;SDS011;9294;51.106;7.028;2023-03-08T01:46:04;1.67;;;1.67;;
18336;SDS011;9294;51.106;7.028;2023-03-08T01:48:42;1.88;;;1.77;;
18336;SDS011;9294;51.106;7.028;2023-03-08T01:51:13;1.63;;;1.63;;
18336;SDS011;9294;51.106;7.028;2023-03-08T01:53:45;1.85;;;1.85;;
18336;SDS011;9294;51.106;7.028;2023-03-08T01:56:12;1.85;;;1.75;;
18336;SDS011;9294;51.106;7.028;2023-03-08T01:58:42;1.40;;;1.40;;
18336;SDS011;9294;51.106;7.028;2023-03-08T02:01:11;1.80;;;1.52;;
18336;SDS011;9294;51.106;7.028;2023-03-08T02:03:37;1.90;;;1.90;;
18336;SDS011;9294;51.106;7.028;2023-03-08T02:06:04;1.55;;;1.55;;
18336;SDS011;9294;51.106;7.028;2023-03-08T02:08:31;1.67;;;1.67;;
18336;SDS011;9294;51.106;7.028;2023-03-08T02:11:00;1.48;;;1.48;;
18336;SDS011;9294;51.106;7.028;2023-03-08T02:13:27;1.35;;;1.35;;
18336;SDS011;9294;51.106;7.028;2023-03-08T02:15:53;1.63;;;1.63;;
18336;SDS011;9294;51.106;7.028;2023-03-08T02:18:23;1.60;;;1.60;;
18336;SDS011;9294;51.106;7.028;2023-03-08T02:20:50;2.00;;;1.90;;
18336;SDS011;9294;51.106;7.028;2023-03-08T02:23:18;1.48;;;1.48;;
18336;SDS011;9294;51.106;7.028;2023-03-08T02:25:49;1.60;;;1.60;;
18336;SDS011;9294;51.106;7.028;2023-03-08T02:28:17;1.40;;;1.40;;
18336;SDS011;9294;51.106;7.028;2023-03-08T02:30:45;1.60;;;1.60;;
18336;SDS011;9294;51.106;7.028;2023-03-08T02:33:11;1.40;;;1.40;;
18336;SDS011;9294;51.106;7.028;2023-03-08T02:35:38;1.75;;;1.75;;
18336;SDS011;9294;51.106;7.028;2023-03-08T02:38:06;2.00;;;1.90;;
18336;SDS011;9294;51.106;7.028;2023-03-08T02:40:35;2.00;;;1.90;;
18336;SDS011;9294;51.106;7.028;2023-03-08T02:43:02;1.50;;;1.50;;
18336;SDS011;9294;51.106;7.028;2023-03-08T02:45:29;1.60;;;1.50;;
18336;SDS011;9294;51.106;7.028;2023-03-08T02:47:55;1.40;;;1.40;;
18336;SDS011;9294;51.106;7.028;2023-03-08T02:50:22;1.65;;;1.55;;
18336;SDS011;9294;51.106;7.028;2023-03-08T02:52:49;1.30;;;1.30;;
18336;SDS011;9294;51.106;7.028;2023-03-08T02:55:15;1.48;;;1.40;;
18336;SDS011;9294;51.106;7.028;2023-03-08T02:57:44;1.48;;;1.48;;
18336;SDS011;9294;51.106;7.028;2023-03-08T03:00:10;1.48;;;1.48;;
18336;SDS011;9294;51.106;7.028;2023-03-08T03:02:38;1.30;;;1.20;;
18336;SDS011;9294;51.106;7.028;2023-03-08T03:05:06;1.38;;;1.38;;
18336;SDS011;9294;51.106;7.028;2023-03-08T03:07:35;1.40;;;1.40;;
18336;SDS011;9294;51.106;7.028;2023-03-08T03:10:02;1.30;;;1.30;;
18336;SDS011;9294;51.106;7.028;2023-03-08T03:12:29;1.60;;;1.60;;
18336;SDS011;9294;51.106;7.028;2023-03-08T03:14:57;1.20;;;1.20;;
18336;SDS011;9294;51.106;7.028;2023-03-08T03:17:26;1.30;;;1.30;;
18336;SDS011;9294;51.106;7.028;2023-03-08T03:19:53;1.30;;;1.30;;
18336;SDS011;9294;51.106;7.028;2023-03-08T03:22:20;1.60;;;1.60;;
18336;SDS011;9294;51.106;7.028;2023-03-08T03:24:48;1.20;;;1.20;;
18336;SDS011;9294;51.106;7.028;2023-03-08T03:27:15;1.20;;;1.20;;
18336;SDS011;9294;51.106;7.028;2023-03-08T03:29:41;1.30;;;1.30;;
18336;SDS011;9294;51.106;7.028;2023-03-08T03:32:10;1.33;;;1.33;;
18336;SDS011;9294;51.106;7.028;2023-03-08T03:34:37;1.23;;;1.23;;
18336;SDS011;9294;51.106;7.028;2023-03-08T03:37:04;1.67;;;1.58;;
18336;SDS011;9294;51.106;7.028;2023-03-08T03:39:30;1.70;;;1.60;;
18336;SDS011;9294;51.106;7.028;2023-03-08T03:42:01;1.20;;;1.20;;
18336;SDS011;9294;51.106;7.028;2023-03-08T03:44:28;1.40;;;1.40;;
18336;SDS011;9294;51.106;7.028;2023-03-08T03:46:55;1.48;;;1.48;;
18336;SDS011;9294;51.106;7.028;2023-03-08T03:49:23;1.55;;;1.45;;
18336;SDS011;9294;51.106;7.028;2023-03-08T03:51:50;1.00;;;1.00;;
18336;SDS011;9294;51.106;7.028;2023-03-08T03:54:17;1.42;;;1.42;;
18336;SDS011;9294;51.106;7.028;2023-03-08T03:56:44;1.30;;;1.30;;
18336;SDS011;9294;51.106;7.028;2023-03-08T03:59:10;1.23;;;1.23;;
18336;SDS011;9294;51.106;7.028;2023-03-08T04:01:37;1.13;;;1.13;;
18336;SDS011;9294;51.106;7.028;2023-03-08T04:04:04;1.55;;;1.55;;
18336;SDS011;9294;51.106;7.028;2023-03-08T04:06:32;1.38;;;1.38;;
18336;SDS011;9294;51.106;7.028;2023-03-08T04:09:00;1.23;;;1.13;;
18336;SDS011;9294;51.106;7.028;2023-03-08T04:11:30;1.35;;;1.35;;
18336;SDS011;9294;51.106;7.028;2023-03-08T04:13:58;1.00;;;1.00;;
18336;SDS011;9294;51.106;7.028;2023-03-08T04:16:26;1.00;;;1.00;;
18336;SDS011;9294;51.106;7.028;2023-03-08T04:18:54;0.95;;;0.95;;
18336;SDS011;9294;51.106;7.028;2023-03-08T04:21:23;1.10;;;1.10;;
18336;SDS011;9294;51.106;7.028;2023-03-08T04:23:51;1.40;;;1.40;;
18336;SDS011;9294;51.106;7.028;2023-03-08T04:26:18;1.38;;;1.38;;
18336;SDS011;9294;51.106;7.028;2023-03-08T04:28:45;1.00;;;1.00;;
18336;SDS011;9294;51.106;7.028;2023-03-08T04:31:12;1.20;;;1.20;;
18336;SDS011;9294;51.106;7.028;2023-03-08T04:33:40;1.08;;;1.08;;
18336;SDS011;9294;51.106;7.028;2023-03-08T04:36:07;1.45;;;1.35;;
18336;SDS011;9294;51.106;7.028;2023-03-08T04:38:34;1.42;;;1.33;;
18336;SDS011;9294;51.106;7.028;2023-03-08T04:41:02;1.17;;;1.17;;
18336;SDS011;9294;51.106;7.028;2023-03-08T04:43:35;1.10;;;1.10;;
18336;SDS011;9294;51.106;7.028;2023-03-08T04:46:03;1.10;;;1.10;;
18336;SDS011;9294;51.106;7.028;2023-03-08T04:48:30;0.95;;;0.95;;
18336;SDS011;9294;51.106;7.028;2023-03-08T04:50:57;1.20;;;1.20;;
18336;SDS011;9294;51.106;7.028;2023-03-08T04:53:25;1.08;;;1.08;;
18336;SDS011;9294;51.106;7.028;2023-03-08T04:55:53;0.88;;;0.88;;
18336;SDS011;9294;51.106;7.028;2023-03-08T04:58:21;1.30;;;1.30;;
18336;SDS011;9294;51.106;7.028;2023-03-08T05:00:48;1.10;;;1.10;;
18336;SDS011;9294;51.106;7.028;2023-03-08T05:03:14;0.88;;;0.88;;
18336;SDS011;9294;51.106;7.028;2023-03-08T05:05:45;1.27;;;1.27;;
18336;SDS011;9294;51.106;7.028;2023-03-08T05:08:12;1.00;;;1.00;;
18336;SDS011;9294;51.106;7.028;2023-03-08T05:10:39;0.98;;;0.98;;
18336;SDS011;9294;51.106;7.028;2023-03-08T05:13:11;0.95;;;0.95;;
18336;SDS011;9294;51.106;7.028;2023-03-08T05:15:39;1.10;;;1.10;;
18336;SDS011;9294;51.106;7.028;2023-03-08T05:18:06;0.95;;;0.95;;
18336;SDS011;9294;51.106;7.028;2023-03-08T05:20:32;1.00;;;1.00;;
18336;SDS011;9294;51.106;7.028;2023-03-08T05:22:59;1.08;;;1.08;;
18336;SDS011;9294;51.106;7.028;2023-03-08T05:25:26;1.00;;;1.00;;
18336;SDS011;9294;51.106;7.028;2023-03-08T05:27:55;0.90;;;0.90;;
18336;SDS011;9294;51.106;7.028;2023-03-08T05:30:22;0.90;;;0.90;;
18336;SDS011;9294;51.106;7.028;2023-03-08T05:32:50;0.98;;;0.98;;
18336;SDS011;9294;51.106;7.028;2023-03-08T05:35:16;1.10;;;1.10;;
18336;SDS011;9294;51.106;7.028;2023-03-08T05:37:43;1.00;;;1.00;;
18336;SDS011;9294;51.106;7.028;2023-03-08T05:40:10;1.13;;;1.13;;
18336;SDS011;9294;51.106;7.028;2023-03-08T05:42:37;0.90;;;0.90;;
18336;SDS011;9294;51.106;7.028;2023-03-08T05:45:04;0.90;;;0.90;;
18336;SDS011;9294;51.106;7.028;2023-03-08T05:47:32;0.73;;;0.73;;
18336;SDS011;9294;51.106;7.028;2023-03-08T05:50:00;0.90;;;0.90;;
18336;SDS011;9294;51.106;7.028;2023-03-08T05:52:27;1.00;;;1.00;;
18336;SDS011;9294;51.106;7.028;2023-03-08T05:54:54;1.13;;;1.13;;
18336;SDS011;9294;51.106;7.028;2023-03-08T05:57:21;1.27;;;1.17;;
18336;SDS011;9294;51.106;7.028;2023-03-08T05:59:48;0.77;;;0.77;;
18336;SDS011;9294;51.106;7.028;2023-03-08T06:02:14;0.82;;;0.82;;
18336;SDS011;9294;51.106;7.028;2023-03-08T06:04:41;1.00;;;1.00;;
18336;SDS011;9294;51.106;7.028;2023-03-08T06:07:09;1.00;;;1.00;;
18336;SDS011;9294;51.106;7.028;2023-03-08T06:09:36;1.02;;;1.02;;
18336;SDS011;9294;51.106;7.028;2023-03-08T06:12:03;0.90;;;0.90;;
18336;SDS011;9294;51.106;7.028;2023-03-08T06:14:30;0.98;;;0.98;;
18336;SDS011;9294;51.106;7.028;2023-03-08T06:16:56;1.00;;;1.00;;
18336;SDS011;9294;51.106;7.028;2023-03-08T06:19:23;0.90;;;0.90;;
18336;SDS011;9294;51.106;7.028;2023-03-08T06:21:50;0.88;;;0.88;;
18336;SDS011;9294;51.106;7.028;2023-03-08T06:24:18;1.58;;;1.00;;
18336;SDS011;9294;51.106;7.028;2023-03-08T06:26:45;0.90;;;0.90;;
18336;SDS011;9294;51.106;7.028;2023-03-08T06:29:11;1.00;;;1.00;;
18336;SDS011;9294;51.106;7.028;2023-03-08T06:31:38;1.77;;;1.00;;
18336;SDS011;9294;51.106;7.028;2023-03-08T06:34:05;1.10;;;1.10;;
18336;SDS011;9294;51.106;7.028;2023-03-08T06:36:31;1.88;;;0.93;;
18336;SDS011;9294;51.106;7.028;2023-03-08T06:38:58;1.55;;;0.90;;
18336;SDS011;9294;51.106;7.028;2023-03-08T06:41:26;0.98;;;0.98;;
18336;SDS011;9294;51.106;7.028;2023-03-08T06:43:53;0.90;;;0.90;;
18336;SDS011;9294;51.106;7.028;2023-03-08T06:46:20;1.75;;;1.00;;
18336;SDS011;9294;51.106;7.028;2023-03-08T06:48:47;0.98;;;0.98;;
18336;SDS011;9294;51.106;7.028;2023-03-08T06:51:15;0.90;;;0.90;;
18336;SDS011;9294;51.106;7.028;2023-03-08T06:53:43;1.58;;;1.02;;
18336;SDS011;9294;51.106;7.028;2023-03-08T06:56:11;1.08;;;1.08;;
18336;SDS011;9294;51.106;7.028;2023-03-08T06:58:40;1.20;;;1.20;;
18336;SDS011;9294;51.106;7.028;2023-03-08T07:01:07;1.10;;;1.10;;
18336;SDS011;9294;51.106;7.028;2023-03-08T07:03:35;1.02;;;1.02;;
18336;SDS011;9294;51.106;7.028;2023-03-08T07:06:02;3.05;;;1.10;;
18336;SDS011;9294;51.106;7.028;2023-03-08T07:08:31;1.30;;;1.20;;
18336;SDS011;9294;51.106;7.028;2023-03-08T07:10:59;1.23;;;1.20;;
18336;SDS011;9294;51.106;7.028;2023-03-08T07:13:26;2.38;;;1.08;;
18336;SDS011;9294;51.106;7.028;2023-03-08T07:15:55;2.40;;;1.02;;
18336;SDS011;9294;51.106;7.028;2023-03-08T07:18:22;1.85;;;1.08;;
18336;SDS011;9294;51.106;7.028;2023-03-08T07:20:50;0.93;;;0.93;;
18336;SDS011;9294;51.106;7.028;2023-03-08T07:23:17;2.00;;;0.95;;
18336;SDS011;9294;51.106;7.028;2023-03-08T07:25:44;1.27;;;1.00;;
18336;SDS011;9294;51.106;7.028;2023-03-08T07:28:11;2.05;;;1.20;;
18336;SDS011;9294;51.106;7.028;2023-03-08T07:30:38;1.30;;;1.20;;
18336;SDS011;9294;51.106;7.028;2023-03-08T07:33:06;0.93;;;0.93;;
18336;SDS011;9294;51.106;7.028;2023-03-08T07:35:35;2.35;;;1.30;;
18336;SDS011;9294;51.106;7.028;2023-03-08T07:38:02;4.45;;;1.00;;
18336;SDS011;9294;51.106;7.028;2023-03-08T07:40:29;2.30;;;1.10;;
18336;SDS011;9294;51.106;7.028;2023-03-08T07:42:56;1.02;;;1.02;;
18336;SDS011;9294;51.106;7.028;2023-03-08T07:45:22;2.55;;;1.27;;
18336;SDS011;9294;51.106;7.028;2023-03-08T07:47:49;1.10;;;1.10;;
18336;SDS011;9294;51.106;7.028;2023-03-08T07:50:18;1.17;;;1.10;;
18336;SDS011;9294;51.106;7.028;2023-03-08T07:52:45;1.27;;;1.17;;
18336;SDS011;9294;51.106;7.028;2023-03-08T07:55:12;1.77;;;1.08;;
18336;SDS011;9294;51.106;7.028;2023-03-08T07:57:38;1.10;;;1.10;;
18336;SDS011;9294;51.106;7.028;2023-03-08T08:00:06;1.35;;;1.00;;
18336;SDS011;9294;51.106;7.028;2023-03-08T08:02:34;1.52;;;1.10;;
18336;SDS011;9294;51.106;7.028;2023-03-08T08:05:01;6.05;;;1.20;;
18336;SDS011;9294;51.106;7.028;2023-03-08T08:07:30;2.10;;;1.80;;
18336;SDS011;9294;51.106;7.028;2023-03-08T08:09:57;0.90;;;0.70;;
18336;SDS011;9294;51.106;7.028;2023-03-08T08:12:23;0.93;;;0.82;;
18336;SDS011;9294;51.106;7.028;2023-03-08T08:14:50;1.90;;;1.40;;
18336;SDS011;9294;51.106;7.028;2023-03-08T08:17:17;2.42;;;0.90;;
18336;SDS011;9294;51.106;7.028;2023-03-08T08:19:44;0.90;;;0.90;;
18336;SDS011;9294;51.106;7.028;2023-03-08T08:22:11;0.90;;;0.90;;
18336;SDS011;9294;51.106;7.028;2023-03-08T08:24:40;1.30;;;1.00;;
18336;SDS011;9294;51.106;7.028;2023-03-08T08:27:07;0.80;;;0.80;;
18336;SDS011;9294;51.106;7.028;2023-03-08T08:29:33;1.30;;;1.13;;
18336;SDS011;9294;51.106;7.028;2023-03-08T08:32:02;0.98;;;0.98;;
18336;SDS011;9294;51.106;7.028;2023-03-08T08:34:29;2.72;;;1.08;;
18336;SDS011;9294;51.106;7.028;2023-03-08T08:36:55;1.00;;;0.98;;
18336;SDS011;9294;51.106;7.028;2023-03-08T08:39:22;1.58;;;1.20;;
18336;SDS011;9294;51.106;7.028;2023-03-08T08:41:50;1.35;;;1.25;;
18336;SDS011;9294;51.106;7.028;2023-03-08T08:44:17;2.22;;;1.20;;
18336;SDS011;9294;51.106;7.028;2023-03-08T08:46:44;3.00;;;1.17;;
18336;SDS011;9294;51.106;7.028;2023-03-08T08:49:10;4.68;;;1.02;;
18336;SDS011;9294;51.106;7.028;2023-03-08T08:51:37;1.08;;;1.08;;
18336;SDS011;9294;51.106;7.028;2023-03-08T08:54:04;2.13;;;1.10;;
18336;SDS011;9294;51.106;7.028;2023-03-08T08:56:30;1.52;;;1.05;;
18336;SDS011;9294;51.106;7.028;2023-03-08T08:59:00;2.67;;;1.13;;
18336;SDS011;9294;51.106;7.028;2023-03-08T09:01:27;1.08;;;1.08;;
18336;SDS011;9294;51.106;7.028;2023-03-08T09:03:55;0.80;;;0.80;;
18336;SDS011;9294;51.106;7.028;2023-03-08T09:06:23;3.42;;;1.27;;
18336;SDS011;9294;51.106;7.028;2023-03-08T09:08:51;1.13;;;0.88;;
18336;SDS011;9294;51.106;7.028;2023-03-08T09:11:19;0.75;;;0.75;;
18336;SDS011;9294;51.106;7.028;2023-03-08T09:13:46;1.75;;;1.00;;
18336;SDS011;9294;51.106;7.028;2023-03-08T09:16:17;1.17;;;1.08;;
18336;SDS011;9294;51.106;7.028;2023-03-08T09:18:44;1.33;;;0.95;;
18336;SDS011;9294;51.106;7.028;2023-03-08T09:21:11;0.70;;;0.70;;
18336;SDS011;9294;51.106;7.028;2023-03-08T09:23:38;1.20;;;1.10;;
18336;SDS011;9294;51.106;7.028;2023-03-08T09:26:05;1.20;;;0.70;;
18336;SDS011;9294;51.106;7.028;2023-03-08T09:28:31;2.97;;;0.73;;
18336;SDS011;9294;51.106;7.028;2023-03-08T09:30:58;0.80;;;0.80;;
18336;SDS011;9294;51.106;7.028;2023-03-08T09:33:28;0.70;;;0.70;;
18336;SDS011;9294;51.106;7.028;2023-03-08T09:35:55;0.85;;;0.73;;
18336;SDS011;9294;51.106;7.028;2023-03-08T09:38:22;1.38;;;1.00;;
18336;SDS011;9294;51.106;7.028;2023-03-08T09:40:52;4.55;;;1.20;;
18336;SDS011;9294;51.106;7.028;2023-03-08T09:43:27;1.10;;;1.10;;
18336;SDS011;9294;51.106;7.028;2023-03-08T09:46:07;0.88;;;0.88;;
18336;SDS011;9294;51.106;7.028;2023-03-08T09:48:39;2.22;;;1.00;;
18336;SDS011;9294;51.106;7.028;2023-03-08T09:51:12;3.05;;;1.45;;
18336;SDS011;9294;51.106;7.028;2023-03-08T09:53:41;4.00;;;1.10;;
18336;SDS011;9294;51.106;7.028;2023-03-08T09:56:15;5.65;;;1.23;;
18336;SDS011;9294;51.106;7.028;2023-03-08T09:58:48;4.85;;;1.60;;
18336;SDS011;9294;51.106;7.028;2023-03-08T10:01:20;6.80;;;1.50;;
18336;SDS011;9294;51.106;7.028;2023-03-08T10:04:14;6.03;;;1.40;;
18336;SDS011;9294;51.106;7.028;2023-03-08T10:06:55;8.88;;;1.33;;
18336;SDS011;9294;51.106;7.028;2023-03-08T10:09:34;3.88;;;1.58;;
18336;SDS011;9294;51.106;7.028;2023-03-08T10:12:08;3.90;;;1.60;;
18336;SDS011;9294;51.106;7.028;2023-03-08T10:14:43;7.80;;;1.50;;
18336;SDS011;9294;51.106;7.028;2023-03-08T10:17:16;5.72;;;1.30;;
18336;SDS011;9294;51.106;7.028;2023-03-08T10:19:47;0.80;;;0.80;;
18336;SDS011;9294;51.106;7.028;2023-03-08T10:22:25;4.15;;;1.20;;
18336;SDS011;9294;51.106;7.028;2023-03-08T10:24:54;2.28;;;0.85;;
18336;SDS011;9294;51.106;7.028;2023-03-08T10:27:25;3.30;;;0.90;;
18336;SDS011;9294;51.106;7.028;2023-03-08T10:29:54;3.13;;;1.10;;
18336;SDS011;9294;51.106;7.028;2023-03-08T10:32:22;1.95;;;0.90;;
18336;SDS011;9294;51.106;7.028;2023-03-08T10:34:51;2.70;;;0.95;;
18336;SDS011;9294;51.106;7.028;2023-03-08T10:37:28;2.33;;;1.02;;
18336;SDS011;9294;51.106;7.028;2023-03-08T10:39:56;9.00;;;1.23;;
18336;SDS011;9294;51.106;7.028;2023-03-08T10:42:29;1.05;;;1.00;;
18336;SDS011;9294;51.106;7.028;2023-03-08T10:44:57;4.38;;;1.50;;
18336;SDS011;9294;51.106;7.028;2023-03-08T10:47:26;2.17;;;1.10;;
18336;SDS011;9294;51.106;7.028;2023-03-08T10:50:08;1.55;;;0.98;;
18336;SDS011;9294;51.106;7.028;2023-03-08T10:52:39;1.08;;;1.08;;
18336;SDS011;9294;51.106;7.028;2023-03-08T10:55:09;1.20;;;1.17;;
18336;SDS011;9294;51.106;7.028;2023-03-08T10:57:38;1.05;;;1.05;;
18336;SDS011;9294;51.106;7.028;2023-03-08T11:00:28;1.10;;;1.10;;
18336;SDS011;9294;51.106;7.028;2023-03-08T11:03:13;1.95;;;1.10;;
18336;SDS011;9294;51.106;7.028;2023-03-08T11:05:53;1.35;;;1.35;;
18336;SDS011;9294;51.106;7.028;2023-03-08T11:08:22;1.33;;;1.33;;
18336;SDS011;9294;51.106;7.028;2023-03-08T11:10:58;1.30;;;1.20;;
18336;SDS011;9294;51.106;7.028;2023-03-08T11:13:28;1.23;;;1.17;;
18336;SDS011;9294;51.106;7.028;2023-03-08T11:15:59;3.42;;;1.20;;
18336;SDS011;9294;51.106;7.028;2023-03-08T11:18:59;1.10;;;1.10;;
18336;SDS011;9294;51.106;7.028;2023-03-08T11:21:34;1.17;;;1.10;;
18336;SDS011;9294;51.106;7.028;2023-03-08T11:24:15;1.45;;;1.10;;
18336;SDS011;9294;51.106;7.028;2023-03-08T11:26:51;2.20;;;1.40;;
18336;SDS011;9294;51.106;7.028;2023-03-08T11:29:28;1.58;;;1.20;;
18336;SDS011;9294;51.106;7.028;2023-03-08T11:32:01;2.13;;;1.35;;
18336;SDS011;9294;51.106;7.028;2023-03-08T11:34:44;2.50;;;1.33;;
18336;SDS011;9294;51.106;7.028;2023-03-08T11:37:24;1.25;;;1.25;;
18336;SDS011;9294;51.106;7.028;2023-03-08T11:40:00;1.02;;;1.02;;
18336;SDS011;9294;51.106;7.028;2023-03-08T11:42:40;1.40;;;1.30;;
18336;SDS011;9294;51.106;7.028;2023-03-08T11:45:18;4.50;;;1.30;;
18336;SDS011;9294;51.106;7.028;2023-03-08T11:47:56;1.58;;;1.27;;
18336;SDS011;9294;51.106;7.028;2023-03-08T11:50:36;1.23;;;1.20;;
18336;SDS011;9294;51.106;7.028;2023-03-08T11:53:13;1.10;;;1.10;;
18336;SDS011;9294;51.106;7.028;2023-03-08T11:55:56;1.10;;;1.08;;
18336;SDS011;9294;51.106;7.028;2023-03-08T11:58:31;1.40;;;1.30;;
18336;SDS011;9294;51.106;7.028;2023-03-08T12:01:02;1.13;;;1.13;;
18336;SDS011;9294;51.106;7.028;2023-03-08T12:03:35;1.20;;;1.20;;
18336;SDS011;9294;51.106;7.028;2023-03-08T12:06:07;1.20;;;1.20;;
18336;SDS011;9294;51.106;7.028;2023-03-08T12:08:40;1.50;;;1.40;;
18336;SDS011;9294;51.106;7.028;2023-03-08T12:11:10;1.10;;;1.10;;
18336;SDS011;9294;51.106;7.028;2023-03-08T12:13:43;1.40;;;1.00;;
18336;SDS011;9294;51.106;7.028;2023-03-08T12:16:13;1.08;;;1.08;;
18336;SDS011;9294;51.106;7.028;2023-03-08T12:18:44;1.63;;;1.00;;
18336;SDS011;9294;51.106;7.028;2023-03-08T12:21:20;2.45;;;1.10;;
18336;SDS011;9294;51.106;7.028;2023-03-08T12:24:00;1.15;;;1.08;;
18336;SDS011;9294;51.106;7.028;2023-03-08T12:26:38;1.33;;;1.30;;
18336;SDS011;9294;51.106;7.028;2023-03-08T12:29:09;1.23;;;1.13;;
18336;SDS011;9294;51.106;7.028;2023-03-08T12:31:42;1.10;;;1.10;;
18336;SDS011;9294;51.106;7.028;2023-03-08T12:34:12;2.00;;;1.50;;
18336;SDS011;9294;51.106;7.028;2023-03-08T12:36:48;4.32;;;1.38;;
18336;SDS011;9294;51.106;7.028;2023-03-08T12:39:27;1.42;;;1.42;;
18336;SDS011;9294;51.106;7.028;2023-03-08T12:41:56;1.33;;;1.33;;
18336;SDS011;9294;51.106;7.028;2023-03-08T12:44:26;2.67;;;1.33;;
18336;SDS011;9294;51.106;7.028;2023-03-08T12:46:54;6.78;;;1.55;;
18336;SDS011;9294;51.106;7.028;2023-03-08T12:49:24;2.60;;;1.50;;
18336;SDS011;9294;51.106;7.028;2023-03-08T12:51:55;2.17;;;1.15;;
18336;SDS011;9294;51.106;7.028;2023-03-08T12:54:26;2.22;;;1.30;;
18336;SDS011;9294;51.106;7.028;2023-03-08T12:56:55;2.55;;;1.30;;
18336;SDS011;9294;51.106;7.028;2023-03-08T12:59:25;3.90;;;1.70;;
18336;SDS011;9294;51.106;7.028;2023-03-08T13:02:01;2.78;;;1.30;;
18336;SDS011;9294;51.106;7.028;2023-03-08T13:04:46;6.20;;;1.52;;
18336;SDS011;9294;51.106;7.028;2023-03-08T13:07:18;2.35;;;1.27;;
18336;SDS011;9294;51.106;7.028;2023-03-08T13:09:52;1.58;;;1.10;;
18336;SDS011;9294;51.106;7.028;2023-03-08T13:12:27;1.92;;;1.70;;
18336;SDS011;9294;51.106;7.028;2023-03-08T13:15:00;1.23;;;1.23;;
18336;SDS011;9294;51.106;7.028;2023-03-08T13:17:47;1.75;;;1.23;;
18336;SDS011;9294;51.106;7.028;2023-03-08T13:20:16;1.48;;;1.48;;
18336;SDS011;9294;51.106;7.028;2023-03-08T13:22:54;1.60;;;1.50;;
18336;SDS011;9294;51.106;7.028;2023-03-08T13:25:38;1.35;;;1.02;;
18336;SDS011;9294;51.106;7.028;2023-03-08T13:28:13;1.20;;;1.20;;
18336;SDS011;9294;51.106;7.028;2023-03-08T13:30:42;1.15;;;1.15;;
18336;SDS011;9294;51.106;7.028;2023-03-08T13:33:14;1.38;;;1.23;;
18336;SDS011;9294;51.106;7.028;2023-03-08T13:35:52;3.88;;;1.40;;
18336;SDS011;9294;51.106;7.028;2023-03-08T13:38:21;1.25;;;1.23;;
18336;SDS011;9294;51.106;7.028;2023-03-08T13:40:50;2.15;;;1.35;;
18336;SDS011;9294;51.106;7.028;2023-03-08T13:43:19;1.88;;;1.58;;
18336;SDS011;9294;51.106;7.028;2023-03-08T13:45:47;1.33;;;1.30;;
18336;SDS011;9294;51.106;7.028;2023-03-08T13:48:14;1.05;;;1.05;;
18336;SDS011;9294;51.106;7.028;2023-03-08T13:50:41;2.20;;;1.30;;
18336;SDS011;9294;51.106;7.028;2023-03-08T13:53:13;1.13;;;1.13;;
18336;SDS011;9294;51.106;7.028;2023-03-08T13:55:43;1.33;;;1.30;;
18336;SDS011;9294;51.106;7.028;2023-03-08T13:58:17;2.08;;;1.40;;
18336;SDS011;9294;51.106;7.028;2023-03-08T14:00:56;1.50;;;1.30;;
18336;SDS011;9294;51.106;7.028;2023-03-08T14:03:25;1.33;;;1.20;;
18336;SDS011;9294;51.106;7.028;2023-03-08T14:05:54;2.05;;;1.42;;
18336;SDS011;9294;51.106;7.028;2023-03-08T14:08:21;3.55;;;1.80;;
18336;SDS011;9294;51.106;7.028;2023-03-08T14:10:50;4.93;;;1.55;;
18336;SDS011;9294;51.106;7.028;2023-03-08T14:13:22;4.55;;;1.55;;
18336;SDS011;9294;51.106;7.028;2023-03-08T14:15:52;3.88;;;2.15;;
18336;SDS011;9294;51.106;7.028;2023-03-08T14:18:20;4.82;;;1.75;;
18336;SDS011;9294;51.106;7.028;2023-03-08T14:20:58;6.55;;;1.58;;
18336;SDS011;9294;51.106;7.028;2023-03-08T14:23:26;4.53;;;1.60;;
18336;SDS011;9294;51.106;7.028;2023-03-08T14:25:57;1.52;;;1.40;;
18336;SDS011;9294;51.106;7.028;2023-03-08T14:28:35;2.08;;;1.40;;
18336;SDS011;9294;51.106;7.028;2023-03-08T14:33:54;5.38;;;1.60;;
18336;SDS011;9294;51.106;7.028;2023-03-08T14:36:22;2.42;;;1.52;;
18336;SDS011;9294;51.106;7.028;2023-03-08T14:38:49;1.65;;;1.55;;
18336;SDS011;9294;51.106;7.028;2023-03-08T14:41:16;5.03;;;1.75;;
18336;SDS011;9294;51.106;7.028;2023-03-08T14:43:47;1.48;;;1.48;;
18336;SDS011;9294;51.106;7.028;2023-03-08T14:46:16;1.80;;;1.30;;
18336;SDS011;9294;51.106;7.028;2023-03-08T14:48:43;1.30;;;1.30;;
18336;SDS011;9294;51.106;7.028;2023-03-08T14:51:24;2.65;;;1.45;;
18336;SDS011;9294;51.106;7.028;2023-03-08T14:53:57;3.28;;;1.67;;
18336;SDS011;9294;51.106;7.028;2023-03-08T14:56:24;1.60;;;1.50;;
18336;SDS011;9294;51.106;7.028;2023-03-08T14:58:54;3.13;;;1.08;;
18336;SDS011;9294;51.106;7.028;2023-03-08T15:01:26;1.23;;;1.13;;
18336;SDS011;9294;51.106;7.028;2023-03-08T15:03:54;3.28;;;1.48;;
18336;SDS011;9294;51.106;7.028;2023-03-08T15:06:21;3.15;;;1.50;;
18336;SDS011;9294;51.106;7.028;2023-03-08T15:08:50;2.58;;;1.50;;
18336;SDS011;9294;51.106;7.028;2023-03-08T15:11:18;1.55;;;1.42;;
18336;SDS011;9294;51.106;7.028;2023-03-08T15:13:44;3.95;;;1.20;;
18336;SDS011;9294;51.106;7.028;2023-03-08T15:16:12;2.90;;;1.45;;